sensor_id;sensor_type;location;lat;lon;timestamp;P1;durP1;ratioP1;P2;durP2;ratioP2
63350;SDS011;64988;51.058;17.040;2023-08-20T00:02:35;33.25;;;20.52;;
63350;SDS011;64988;51.058;17.040;2023-08-20T00:08:02;28.73;;;20.73;;
63350;SDS011;64988;51.058;17.040;2023-08-20T00:13:29;30.63;;;20.88;;
63350;SDS011;64988;51.058;17.040;2023-08-20T00:18:56;25.17;;;18.55;;
63350;SDS011;64988;51.058;17.040;2023-08-20T00:24:23;32.65;;;21.92;;
63350;SDS011;64988;51.058;17.040;2023-08-20T00:29:50;29.83;;;20.88;;
63350;SDS011;64988;51.058;17.040;2023-08-20T00:35:17;29.52;;;19.52;;
63350;SDS011;64988;51.058;17.040;2023-08-20T00:40:44;28.75;;;20.27;;
63350;SDS011;64988;51.058;17.040;2023-08-20T00:46:11;32.55;;;22.20;;
63350;SDS011;64988;51.058;17.040;2023-08-20T00:51:38;32.15;;;22.75;;
63350;SDS011;64988;51.058;17.040;2023-08-20T00:57:06;39.45;;;24.50;;
63350;SDS011;64988;51.058;17.040;2023-08-20T01:02:33;32.97;;;22.25;;
63350;SDS011;64988;51.058;17.040;2023-08-20T01:08:25;30.95;;;21.48;;
63350;SDS011;64988;51.058;17.040;2023-08-20T01:13:48;34.97;;;21.58;;
63350;SDS011;64988;51.058;17.040;2023-08-20T01:19:19;29.25;;;21.05;;
63350;SDS011;64988;51.058;17.040;2023-08-20T01:25:04;25.42;;;17.80;;
63350;SDS011;64988;51.058;17.040;2023-08-20T01:30:36;31.90;;;21.80;;
63350;SDS011;64988;51.058;17.040;2023-08-20T01:36:03;32.80;;;21.00;;
63350;SDS011;64988;51.058;17.040;2023-08-20T01:47:03;34.17;;;19.48;;
63350;SDS011;64988;51.058;17.040;2023-08-20T01:52:30;32.20;;;21.17;;
63350;SDS011;64988;51.058;17.040;2023-08-20T01:57:57;36.05;;;21.90;;
63350;SDS011;64988;51.058;17.040;2023-08-20T02:03:24;34.25;;;23.02;;
63350;SDS011;64988;51.058;17.040;2023-08-20T02:08:51;31.38;;;20.92;;
63350;SDS011;64988;51.058;17.040;2023-08-20T02:14:18;30.40;;;19.90;;
63350;SDS011;64988;51.058;17.040;2023-08-20T02:19:45;33.55;;;20.33;;
63350;SDS011;64988;51.058;17.040;2023-08-20T02:25:12;28.88;;;19.52;;
63350;SDS011;64988;51.058;17.040;2023-08-20T02:30:44;37.08;;;24.67;;
63350;SDS011;64988;51.058;17.040;2023-08-20T02:36:11;39.30;;;23.60;;
63350;SDS011;64988;51.058;17.040;2023-08-20T02:41:38;36.75;;;23.48;;
63350;SDS011;64988;51.058;17.040;2023-08-20T02:47:06;33.30;;;22.80;;
63350;SDS011;64988;51.058;17.040;2023-08-20T02:52:33;19.73;;;15.68;;
63350;SDS011;64988;51.058;17.040;2023-08-20T02:58:01;32.22;;;22.60;;
63350;SDS011;64988;51.058;17.040;2023-08-20T03:03:30;27.90;;;17.00;;
63350;SDS011;64988;51.058;17.040;2023-08-20T03:08:57;34.75;;;22.23;;
63350;SDS011;64988;51.058;17.040;2023-08-20T03:14:25;31.30;;;21.25;;
63350;SDS011;64988;51.058;17.040;2023-08-20T03:19:55;24.17;;;17.13;;
63350;SDS011;64988;51.058;17.040;2023-08-20T03:25:24;26.17;;;18.70;;
63350;SDS011;64988;51.058;17.040;2023-08-20T03:30:52;27.63;;;19.25;;
63350;SDS011;64988;51.058;17.040;2023-08-20T03:36:24;28.23;;;20.45;;
63350;SDS011;64988;51.058;17.040;2023-08-20T03:41:51;32.70;;;21.02;;
63350;SDS011;64988;51.058;17.040;2023-08-20T03:47:19;27.30;;;19.35;;
63350;SDS011;64988;51.058;17.040;2023-08-20T03:52:49;26.10;;;19.42;;
63350;SDS011;64988;51.058;17.040;2023-08-20T03:58:16;34.13;;;21.40;;
63350;SDS011;64988;51.058;17.040;2023-08-20T04:03:42;32.33;;;22.20;;
63350;SDS011;64988;51.058;17.040;2023-08-20T04:09:10;33.55;;;22.60;;
63350;SDS011;64988;51.058;17.040;2023-08-20T04:14:39;35.42;;;22.48;;
63350;SDS011;64988;51.058;17.040;2023-08-20T04:20:07;489.52;;;38.17;;
63350;SDS011;64988;51.058;17.040;2023-08-20T04:25:36;27.88;;;18.58;;
63350;SDS011;64988;51.058;17.040;2023-08-20T04:31:02;32.40;;;21.45;;
63350;SDS011;64988;51.058;17.040;2023-08-20T04:36:44;24.67;;;16.55;;
63350;SDS011;64988;51.058;17.040;2023-08-20T04:42:12;11.45;;;9.55;;
63350;SDS011;64988;51.058;17.040;2023-08-20T04:47:39;19.35;;;14.75;;
63350;SDS011;64988;51.058;17.040;2023-08-20T04:53:07;20.65;;;14.63;;
63350;SDS011;64988;51.058;17.040;2023-08-20T04:58:34;16.55;;;13.40;;
63350;SDS011;64988;51.058;17.040;2023-08-20T05:04:01;14.20;;;11.68;;
63350;SDS011;64988;51.058;17.040;2023-08-20T05:09:28;17.40;;;13.60;;
63350;SDS011;64988;51.058;17.040;2023-08-20T05:14:55;15.57;;;11.90;;
63350;SDS011;64988;51.058;17.040;2023-08-20T05:20:22;17.30;;;11.35;;
63350;SDS011;64988;51.058;17.040;2023-08-20T05:25:49;12.18;;;10.88;;
63350;SDS011;64988;51.058;17.040;2023-08-20T05:31:16;12.68;;;10.40;;
63350;SDS011;64988;51.058;17.040;2023-08-20T05:36:43;10.13;;;8.95;;
63350;SDS011;64988;51.058;17.040;2023-08-20T05:42:10;9.60;;;8.60;;
63350;SDS011;64988;51.058;17.040;2023-08-20T05:47:39;8.85;;;7.82;;
63350;SDS011;64988;51.058;17.040;2023-08-20T05:53:07;8.93;;;8.02;;
63350;SDS011;64988;51.058;17.040;2023-08-20T05:58:34;8.48;;;7.78;;
63350;SDS011;64988;51.058;17.040;2023-08-20T06:04:01;8.02;;;7.35;;
63350;SDS011;64988;51.058;17.040;2023-08-20T06:09:28;8.05;;;7.35;;
63350;SDS011;64988;51.058;17.040;2023-08-20T06:14:56;8.00;;;7.20;;
63350;SDS011;64988;51.058;17.040;2023-08-20T06:20:23;7.53;;;6.82;;
63350;SDS011;64988;51.058;17.040;2023-08-20T06:25:50;6.75;;;6.25;;
63350;SDS011;64988;51.058;17.040;2023-08-20T06:31:17;7.68;;;6.10;;
63350;SDS011;64988;51.058;17.040;2023-08-20T06:36:44;6.72;;;6.03;;
63350;SDS011;64988;51.058;17.040;2023-08-20T06:42:11;8.65;;;6.57;;
63350;SDS011;64988;51.058;17.040;2023-08-20T10:47:45;8.25;;;7.53;;
63350;SDS011;64988;51.058;17.040;2023-08-20T10:53:12;10.00;;;7.10;;
63350;SDS011;64988;51.058;17.040;2023-08-20T10:58:46;8.48;;;7.43;;
63350;SDS011;64988;51.058;17.040;2023-08-20T11:04:18;8.63;;;6.90;;
63350;SDS011;64988;51.058;17.040;2023-08-20T11:09:46;8.05;;;7.35;;
63350;SDS011;64988;51.058;17.040;2023-08-20T11:15:15;10.52;;;6.93;;
63350;SDS011;64988;51.058;17.040;2023-08-20T11:20:42;8.68;;;7.75;;
63350;SDS011;64988;51.058;17.040;2023-08-20T11:26:09;9.00;;;7.32;;
63350;SDS011;64988;51.058;17.040;2023-08-20T11:31:36;8.80;;;6.57;;
63350;SDS011;64988;51.058;17.040;2023-08-20T11:37:05;8.63;;;7.47;;
63350;SDS011;64988;51.058;17.040;2023-08-20T11:42:33;8.48;;;7.15;;
63350;SDS011;64988;51.058;17.040;2023-08-20T11:48:00;7.57;;;6.75;;
63350;SDS011;64988;51.058;17.040;2023-08-20T11:53:28;9.60;;;6.88;;
63350;SDS011;64988;51.058;17.040;2023-08-20T11:58:58;7.80;;;6.97;;
63350;SDS011;64988;51.058;17.040;2023-08-20T12:04:27;10.57;;;7.22;;
63350;SDS011;64988;51.058;17.040;2023-08-20T12:09:54;8.38;;;7.57;;
63350;SDS011;64988;51.058;17.040;2023-08-20T12:15:22;8.10;;;7.30;;
63350;SDS011;64988;51.058;17.040;2023-08-20T12:20:50;8.05;;;7.25;;
63350;SDS011;64988;51.058;17.040;2023-08-20T12:26:17;10.68;;;7.15;;
63350;SDS011;64988;51.058;17.040;2023-08-20T12:31:45;8.75;;;7.57;;
63350;SDS011;64988;51.058;17.040;2023-08-20T12:37:12;9.18;;;7.80;;
63350;SDS011;64988;51.058;17.040;2023-08-20T12:42:39;8.85;;;7.95;;
63350;SDS011;64988;51.058;17.040;2023-08-20T12:48:10;8.55;;;7.50;;
63350;SDS011;64988;51.058;17.040;2023-08-20T12:53:37;9.02;;;8.18;;
63350;SDS011;64988;51.058;17.040;2023-08-20T12:59:06;12.27;;;8.18;;
63350;SDS011;64988;51.058;17.040;2023-08-20T13:04:33;9.23;;;7.40;;
63350;SDS011;64988;51.058;17.040;2023-08-20T13:10:00;9.50;;;7.18;;
63350;SDS011;64988;51.058;17.040;2023-08-20T13:15:27;9.38;;;7.95;;
63350;SDS011;64988;51.058;17.040;2023-08-20T13:20:54;11.55;;;7.57;;
63350;SDS011;64988;51.058;17.040;2023-08-20T13:26:21;9.43;;;7.18;;
63350;SDS011;64988;51.058;17.040;2023-08-20T13:31:49;8.27;;;7.05;;
63350;SDS011;64988;51.058;17.040;2023-08-20T13:37:16;7.90;;;7.10;;
63350;SDS011;64988;51.058;17.040;2023-08-20T13:42:44;8.10;;;7.28;;
63350;SDS011;64988;51.058;17.040;2023-08-20T13:48:12;10.57;;;7.78;;
63350;SDS011;64988;51.058;17.040;2023-08-20T13:53:39;8.60;;;7.68;;
63350;SDS011;64988;51.058;17.040;2023-08-20T13:59:08;8.57;;;7.55;;
63350;SDS011;64988;51.058;17.040;2023-08-20T14:04:35;7.32;;;6.63;;
63350;SDS011;64988;51.058;17.040;2023-08-20T14:10:03;9.50;;;7.53;;
63350;SDS011;64988;51.058;17.040;2023-08-20T14:15:32;8.60;;;7.05;;
63350;SDS011;64988;51.058;17.040;2023-08-20T14:20:58;9.57;;;7.43;;
63350;SDS011;64988;51.058;17.040;2023-08-20T14:26:26;8.23;;;7.20;;
63350;SDS011;64988;51.058;17.040;2023-08-20T14:31:53;5.72;;;5.13;;
63350;SDS011;64988;51.058;17.040;2023-08-20T14:37:20;7.50;;;5.60;;
63350;SDS011;64988;51.058;17.040;2023-08-20T14:42:48;6.53;;;5.88;;
63350;SDS011;64988;51.058;17.040;2023-08-20T14:48:16;6.82;;;5.20;;
63350;SDS011;64988;51.058;17.040;2023-08-20T14:53:43;6.30;;;5.40;;
63350;SDS011;64988;51.058;17.040;2023-08-20T14:59:10;7.43;;;5.30;;
63350;SDS011;64988;51.058;17.040;2023-08-20T15:04:38;5.50;;;5.00;;
63350;SDS011;64988;51.058;17.040;2023-08-20T15:10:05;7.28;;;5.88;;
63350;SDS011;64988;51.058;17.040;2023-08-20T15:15:32;7.10;;;5.70;;
63350;SDS011;64988;51.058;17.040;2023-08-20T15:20:59;7.30;;;5.97;;
63350;SDS011;64988;51.058;17.040;2023-08-20T15:26:26;8.43;;;6.43;;
63350;SDS011;64988;51.058;17.040;2023-08-20T15:31:54;7.93;;;5.65;;
63350;SDS011;64988;51.058;17.040;2023-08-20T15:37:21;5.72;;;5.30;;
63350;SDS011;64988;51.058;17.040;2023-08-20T15:42:50;8.10;;;5.45;;
63350;SDS011;64988;51.058;17.040;2023-08-20T15:48:17;7.40;;;5.28;;
63350;SDS011;64988;51.058;17.040;2023-08-20T15:53:44;6.70;;;5.45;;
63350;SDS011;64988;51.058;17.040;2023-08-20T15:59:11;7.30;;;5.20;;
63350;SDS011;64988;51.058;17.040;2023-08-20T16:04:39;6.88;;;5.75;;
63350;SDS011;64988;51.058;17.040;2023-08-20T16:10:06;8.57;;;5.85;;
63350;SDS011;64988;51.058;17.040;2023-08-20T16:15:35;7.43;;;6.05;;
63350;SDS011;64988;51.058;17.040;2023-08-20T16:21:03;11.00;;;6.55;;
63350;SDS011;64988;51.058;17.040;2023-08-20T16:26:29;7.45;;;6.32;;
63350;SDS011;64988;51.058;17.040;2023-08-20T16:31:57;11.13;;;6.85;;
63350;SDS011;64988;51.058;17.040;2023-08-20T16:37:26;7.15;;;6.53;;
63350;SDS011;64988;51.058;17.040;2023-08-20T16:42:53;9.70;;;6.57;;
63350;SDS011;64988;51.058;17.040;2023-08-20T16:48:20;10.93;;;7.35;;
63350;SDS011;64988;51.058;17.040;2023-08-20T16:53:47;11.07;;;7.85;;
63350;SDS011;64988;51.058;17.040;2023-08-20T16:59:14;9.30;;;7.43;;
63350;SDS011;64988;51.058;17.040;2023-08-20T17:04:41;14.00;;;6.75;;
63350;SDS011;64988;51.058;17.040;2023-08-20T17:10:08;10.07;;;7.72;;
63350;SDS011;64988;51.058;17.040;2023-08-20T17:15:36;11.32;;;8.27;;
63350;SDS011;64988;51.058;17.040;2023-08-20T17:21:04;9.77;;;7.40;;
63350;SDS011;64988;51.058;17.040;2023-08-20T17:26:31;11.90;;;8.07;;
63350;SDS011;64988;51.058;17.040;2023-08-20T17:31:58;8.85;;;6.85;;
63350;SDS011;64988;51.058;17.040;2023-08-20T17:37:25;11.77;;;7.90;;
63350;SDS011;64988;51.058;17.040;2023-08-20T17:42:53;13.75;;;8.07;;
63350;SDS011;64988;51.058;17.040;2023-08-20T17:48:20;12.48;;;8.07;;
63350;SDS011;64988;51.058;17.040;2023-08-20T17:53:47;9.40;;;8.07;;
63350;SDS011;64988;51.058;17.040;2023-08-20T17:59:14;12.93;;;8.68;;
63350;SDS011;64988;51.058;17.040;2023-08-20T18:04:41;14.25;;;8.52;;
63350;SDS011;64988;51.058;17.040;2023-08-20T18:10:11;10.45;;;8.80;;
63350;SDS011;64988;51.058;17.040;2023-08-20T18:15:38;16.20;;;9.70;;
63350;SDS011;64988;51.058;17.040;2023-08-20T18:21:05;11.32;;;9.57;;
63350;SDS011;64988;51.058;17.040;2023-08-20T18:26:32;11.45;;;9.18;;
63350;SDS011;64988;51.058;17.040;2023-08-20T18:31:59;12.88;;;9.60;;
63350;SDS011;64988;51.058;17.040;2023-08-20T18:37:26;16.38;;;9.77;;
63350;SDS011;64988;51.058;17.040;2023-08-20T18:42:53;23.92;;;10.73;;
63350;SDS011;64988;51.058;17.040;2023-08-20T18:48:20;20.25;;;10.57;;
63350;SDS011;64988;51.058;17.040;2023-08-20T18:53:47;21.77;;;11.52;;
63350;SDS011;64988;51.058;17.040;2023-08-20T18:59:14;18.98;;;9.73;;
63350;SDS011;64988;51.058;17.040;2023-08-20T19:04:41;17.55;;;10.05;;
63350;SDS011;64988;51.058;17.040;2023-08-20T19:10:09;21.15;;;10.02;;
63350;SDS011;64988;51.058;17.040;2023-08-20T19:15:45;21.00;;;9.90;;
63350;SDS011;64988;51.058;17.040;2023-08-20T19:21:14;30.35;;;10.32;;
63350;SDS011;64988;51.058;17.040;2023-08-20T19:26:43;20.98;;;10.48;;
63350;SDS011;64988;51.058;17.040;2023-08-20T19:32:09;32.45;;;12.77;;
63350;SDS011;64988;51.058;17.040;2023-08-20T19:37:36;31.02;;;10.93;;
63350;SDS011;64988;51.058;17.040;2023-08-20T19:43:04;29.67;;;11.13;;
63350;SDS011;64988;51.058;17.040;2023-08-20T19:48:31;18.48;;;11.27;;
63350;SDS011;64988;51.058;17.040;2023-08-20T19:53:58;16.20;;;10.35;;
63350;SDS011;64988;51.058;17.040;2023-08-20T19:59:25;26.50;;;10.70;;
63350;SDS011;64988;51.058;17.040;2023-08-20T20:04:53;18.85;;;12.20;;
63350;SDS011;64988;51.058;17.040;2023-08-20T20:10:21;20.98;;;11.43;;
63350;SDS011;64988;51.058;17.040;2023-08-20T20:15:48;25.60;;;12.20;;
63350;SDS011;64988;51.058;17.040;2023-08-20T20:21:16;23.60;;;11.40;;
63350;SDS011;64988;51.058;17.040;2023-08-20T20:26:42;23.05;;;11.73;;
63350;SDS011;64988;51.058;17.040;2023-08-20T20:32:09;21.20;;;11.07;;
63350;SDS011;64988;51.058;17.040;2023-08-20T20:37:37;22.00;;;10.93;;
63350;SDS011;64988;51.058;17.040;2023-08-20T20:43:04;26.58;;;12.68;;
63350;SDS011;64988;51.058;17.040;2023-08-20T20:48:31;25.85;;;11.13;;
63350;SDS011;64988;51.058;17.040;2023-08-20T20:53:58;17.48;;;11.52;;
63350;SDS011;64988;51.058;17.040;2023-08-20T20:59:25;22.48;;;12.55;;
63350;SDS011;64988;51.058;17.040;2023-08-20T21:04:53;31.80;;;13.25;;
63350;SDS011;64988;51.058;17.040;2023-08-20T21:10:20;26.23;;;12.27;;
63350;SDS011;64988;51.058;17.040;2023-08-20T21:15:46;22.00;;;12.90;;
63350;SDS011;64988;51.058;17.040;2023-08-20T21:21:14;17.65;;;12.48;;
63350;SDS011;64988;51.058;17.040;2023-08-20T21:26:42;16.27;;;12.07;;
63350;SDS011;64988;51.058;17.040;2023-08-20T21:32:10;21.33;;;12.13;;
63350;SDS011;64988;51.058;17.040;2023-08-20T21:37:37;18.27;;;12.75;;
63350;SDS011;64988;51.058;17.040;2023-08-20T21:43:04;19.98;;;11.98;;
63350;SDS011;64988;51.058;17.040;2023-08-20T21:48:31;24.10;;;14.35;;
63350;SDS011;64988;51.058;17.040;2023-08-20T21:53:59;22.05;;;12.70;;
63350;SDS011;64988;51.058;17.040;2023-08-20T21:59:26;17.42;;;12.02;;
63350;SDS011;64988;51.058;17.040;2023-08-20T22:10:40;15.75;;;13.30;;
63350;SDS011;64988;51.058;17.040;2023-08-20T22:16:09;22.83;;;13.90;;
63350;SDS011;64988;51.058;17.040;2023-08-20T22:21:36;19.70;;;12.18;;
63350;SDS011;64988;51.058;17.040;2023-08-20T22:27:03;14.75;;;12.02;;
63350;SDS011;64988;51.058;17.040;2023-08-20T22:32:30;24.52;;;12.15;;
63350;SDS011;64988;51.058;17.040;2023-08-20T22:38:09;20.90;;;12.93;;
63350;SDS011;64988;51.058;17.040;2023-08-20T22:49:04;23.03;;;12.80;;
63350;SDS011;64988;51.058;17.040;2023-08-20T22:54:31;24.23;;;13.07;;
63350;SDS011;64988;51.058;17.040;2023-08-20T22:59:58;21.25;;;13.15;;
63350;SDS011;64988;51.058;17.040;2023-08-20T23:05:25;18.77;;;12.98;;
63350;SDS011;64988;51.058;17.040;2023-08-20T23:10:51;21.15;;;13.52;;
63350;SDS011;64988;51.058;17.040;2023-08-20T23:16:19;21.35;;;13.63;;
63350;SDS011;64988;51.058;17.040;2023-08-20T23:21:46;21.60;;;13.10;;
63350;SDS011;64988;51.058;17.040;2023-08-20T23:27:13;19.35;;;13.68;;
63350;SDS011;64988;51.058;17.040;2023-08-20T23:32:43;16.20;;;13.25;;
63350;SDS011;64988;51.058;17.040;2023-08-20T23:38:13;17.98;;;12.80;;
63350;SDS011;64988;51.058;17.040;2023-08-20T23:43:41;16.60;;;12.57;;
63350;SDS011;64988;51.058;17.040;2023-08-20T23:49:12;18.92;;;12.90;;
63350;SDS011;64988;51.058;17.040;2023-08-20T23:54:39;23.40;;;14.93;;
